Time;durP1;ratioP1;P1;durP2;ratioP2;P2;SDS_P1;SDS_P2;PMS_P1;PMS_P2;Temp;Humidity;BMP_temperature;BMP_pressure;BME280_temperature;BME280_humidity;BME280_pressure;Samples;Min_cycle;Max_cycle;Signal;HPM_P1;HPM_P2
2021/04/08 00:00:07;;;;;;;5.78;5.03;;;;;;;2.47;39.12;101143.13;4946927;28;98068;-72
2021/04/08 00:02:36;;;;;;;14.88;5.90;;;;;;;2.46;39.28;101130.78;4964648;28;98871;-72
2021/04/08 00:05:03;;;;;;;10.45;5.75;;;;;;;2.45;39.62;101144.75;4965499;28;97132;-72
2021/04/08 00:07:30;;;;;;;11.57;5.97;;;;;;;2.43;39.84;101145.47;4947081;28;97610;-72
2021/04/08 00:09:57;;;;;;;11.50;5.10;;;;;;;2.41;39.77;101140.13;4960580;28;99287;-72
2021/04/08 00:12:23;;;;;;;10.18;5.05;;;;;;;2.42;39.58;101147.19;4932946;28;98851;-72
2021/04/08 00:14:50;;;;;;;6.90;5.28;;;;;;;2.43;39.38;101145.47;4947834;28;96938;-73
2021/04/08 00:17:17;;;;;;;7.05;4.97;;;;;;;2.37;39.14;101131.97;4964832;28;98366;-73
2021/04/08 00:19:45;;;;;;;5.30;4.88;;;;;;;2.34;39.41;101142.28;4962479;28;101650;-72
2021/04/08 00:22:11;;;;;;;7.25;4.30;;;;;;;2.32;39.57;101143.91;4964561;28;97853;-72
2021/04/08 00:24:39;;;;;;;8.45;5.80;;;;;;;2.27;39.84;101140.13;4948789;28;97042;-72
2021/04/08 00:27:07;;;;;;;6.55;5.25;;;;;;;2.21;39.87;101143.28;4979446;28;97589;-72
2021/04/08 00:29:34;;;;;;;6.97;5.85;;;;;;;2.17;39.37;101144.81;4947585;28;99403;-73
2021/04/08 00:32:01;;;;;;;5.22;4.72;;;;;;;2.12;40.13;101155.84;4980886;28;98977;-73
2021/04/08 00:34:28;;;;;;;8.45;6.30;;;;;;;2.14;40.05;101146.34;4947047;28;97789;-73
2021/04/08 00:36:56;;;;;;;8.30;5.50;;;;;;;2.13;39.76;101152.41;4966167;28;96919;-72
2021/04/08 00:39:23;;;;;;;7.40;5.10;;;;;;;2.12;40.11;101159.41;4946248;28;99676;-72
2021/04/08 00:41:49;;;;;;;5.82;5.30;;;;;;;2.11;39.95;101162.81;4946515;28;100317;-72
2021/04/08 00:44:16;;;;;;;6.32;5.65;;;;;;;2.10;40.04;101163.66;4963981;28;97356;-72
2021/04/08 00:46:43;;;;;;;7.68;5.72;;;;;;;2.11;39.31;101172.41;4965024;28;97704;-72
2021/04/08 00:49:10;;;;;;;6.05;5.45;;;;;;;2.10;39.77;101178.47;4964337;28;97775;-72
2021/04/08 00:51:37;;;;;;;5.45;4.93;;;;;;;2.09;39.82;101182.81;4963070;28;99473;-72
2021/04/08 00:54:05;;;;;;;7.78;5.43;;;;;;;2.09;39.43;101184.56;4962916;28;97243;-72
2021/04/08 00:56:32;;;;;;;6.93;5.63;;;;;;;2.03;40.04;101200.81;4965715;28;96837;-72
2021/04/08 00:59:00;;;;;;;7.80;5.85;;;;;;;2.04;40.13;101183.31;4977572;28;99273;-72
2021/04/08 01:01:29;;;;;;;5.95;5.18;;;;;;;2.07;39.77;101200.16;4964735;28;97801;-72
2021/04/08 01:03:56;;;;;;;6.40;5.30;;;;;;;2.10;39.13;101192.53;4961721;28;98553;-72
2021/04/08 01:06:23;;;;;;;6.47;5.88;;;;;;;2.12;39.61;101214.53;4963889;28;97954;-72
2021/04/08 01:08:50;;;;;;;6.43;5.60;;;;;;;2.12;39.81;101211.91;4959992;28;96893;-72
2021/04/08 01:11:17;;;;;;;7.07;5.82;;;;;;;2.10;39.49;101215.22;4978766;28;99517;-72
2021/04/08 01:13:44;;;;;;;6.25;5.63;;;;;;;2.11;39.79;101212.69;4979799;28;97099;-72
2021/04/08 01:16:14;;;;;;;7.85;5.72;;;;;;;2.12;39.96;101224.09;4947447;28;97009;-73
2021/04/08 01:18:54;;;;;;;6.43;5.25;;;;;;;2.13;39.96;101224.19;4960641;28;99762;-71
2021/04/08 01:21:30;;;;;;;5.57;5.20;;;;;;;2.16;40.29;101226.13;4963844;28;98787;-72
2021/04/08 01:24:17;;;;;;;5.88;5.47;;;;;;;2.05;41.33;101233.25;4963404;28;97091;-72
2021/04/08 01:27:12;;;;;;;5.85;5.10;;;;;;;1.99;41.80;101225.03;4978110;28;96932;-72
2021/04/08 01:29:49;;;;;;;6.82;5.43;;;;;;;1.96;40.42;101229.19;4944916;28;98424;-72
2021/04/08 01:32:18;;;;;;;5.38;4.80;;;;;;;1.92;40.34;101230.72;4964474;28;97815;-72
2021/04/08 01:34:47;;;;;;;10.60;6.38;;;;;;;1.94;40.88;101236.97;4962284;28;97228;-72
2021/04/08 01:37:17;;;;;;;11.48;5.25;;;;;;;1.93;40.99;101221.09;4963971;28;97110;-72
2021/04/08 01:39:44;;;;;;;8.88;5.60;;;;;;;1.89;40.80;101238.38;4978578;28;100832;-70
2021/04/08 01:42:13;;;;;;;5.85;5.35;;;;;;;1.87;40.99;101240.00;4929932;28;99193;-72
2021/04/08 01:44:40;;;;;;;12.33;6.67;;;;;;;1.91;41.01;101231.50;4977319;28;97644;-72
2021/04/08 01:47:09;;;;;;;7.22;5.70;;;;;;;1.90;41.10;101242.84;4977800;28;97391;-71
2021/04/08 01:49:41;;;;;;;8.57;5.80;;;;;;;1.90;41.27;101241.91;4945948;28;99795;-71
2021/04/08 01:52:08;;;;;;;10.88;5.35;;;;;;;1.90;40.67;101249.78;4963668;28;99325;-71
2021/04/08 01:54:37;;;;;;;7.55;4.90;;;;;;;1.92;40.79;101245.53;4945908;28;97115;-72
2021/04/08 01:57:07;;;;;;;11.90;5.07;;;;;;;1.93;40.61;101252.59;4945078;28;97452;-72
2021/04/08 01:59:34;;;;;;;6.85;5.10;;;;;;;1.92;40.97;101249.09;4945112;28;98381;-72
2021/04/08 02:02:02;;;;;;;7.45;5.03;;;;;;;1.92;41.14;101246.47;4975506;28;100389;-72
2021/04/08 02:04:29;;;;;;;7.72;4.90;;;;;;;1.93;40.58;101253.50;4946219;28;97238;-72
2021/04/08 02:06:58;;;;;;;9.23;5.22;;;;;;;1.91;40.07;101260.38;4944236;28;97804;-72
2021/04/08 02:09:26;;;;;;;6.68;5.45;;;;;;;1.93;40.06;101256.13;4961576;28;99378;-72
2021/04/08 02:11:54;;;;;;;10.05;6.28;;;;;;;1.98;40.65;101265.19;4960035;28;99047;-73
2021/04/08 02:14:21;;;;;;;10.30;6.38;;;;;;;1.99;41.19;101260.84;4928760;28;97411;-72
2021/04/08 02:16:50;;;;;;;10.60;5.28;;;;;;;2.00;40.82;101266.19;4977960;28;96988;-73
2021/04/08 02:19:18;;;;;;;6.93;6.18;;;;;;;2.00;40.65;101273.16;4963056;28;98142;-73
2021/04/08 02:21:46;;;;;;;14.38;6.50;;;;;;;2.06;40.67;101281.44;4960988;28;98776;-73
2021/04/08 02:24:16;;;;;;;14.75;5.60;;;;;;;2.11;40.61;101270.44;4979037;28;97731;-73
2021/04/08 02:26:43;;;;;;;9.50;5.47;;;;;;;2.13;40.59;101276.69;4945157;28;98438;-71
2021/04/08 02:29:11;;;;;;;8.30;5.35;;;;;;;2.15;40.65;101282.03;4945162;28;100505;-74
2021/04/08 02:31:39;;;;;;;11.13;6.47;;;;;;;2.12;40.67;101280.16;4977189;28;100847;-74
2021/04/08 02:34:07;;;;;;;14.13;7.10;;;;;;;2.15;41.33;101277.69;4963002;28;97876;-73
2021/04/08 02:36:35;;;;;;;15.57;6.90;;;;;;;2.16;40.86;101287.38;4962403;28;97154;-74
2021/04/08 02:39:04;;;;;;;6.88;5.78;;;;;;;2.17;40.71;101302.34;4961841;28;100805;-72
2021/04/08 02:41:37;;;;;;;9.85;6.07;;;;;;;2.10;41.30;101294.88;4964836;28;97696;-73
2021/04/08 02:44:05;;;;;;;9.23;5.57;;;;;;;2.13;40.90;101289.81;4964261;28;97335;-72
2021/04/08 02:46:32;;;;;;;7.95;5.15;;;;;;;2.13;41.03;101297.69;4961209;28;97363;-73
2021/04/08 02:48:59;;;;;;;13.18;6.63;;;;;;;2.11;40.45;101299.31;4959400;28;96989;-74
2021/04/08 02:51:32;;;;;;;7.03;6.10;;;;;;;2.09;40.70;101307.94;4960843;28;97837;-74
2021/04/08 02:54:05;;;;;;;10.18;6.22;;;;;;;2.06;40.14;101305.97;4960938;28;97549;-73
2021/04/08 02:56:38;;;;;;;7.40;5.97;;;;;;;2.07;40.09;101306.88;4960641;28;97034;-73
2021/04/08 02:59:09;;;;;;;10.02;7.30;;;;;;;2.05;40.09;101317.25;4944377;28;100821;-73
2021/04/08 03:01:41;;;;;;;5.80;5.15;;;;;;;1.98;41.17;101322.94;4961286;28;97812;-73
2021/04/08 03:04:09;;;;;;;11.63;5.97;;;;;;;1.93;40.63;101311.25;4944128;28;98893;-73
2021/04/08 03:06:37;;;;;;;6.68;5.28;;;;;;;1.94;40.34;101328.81;4962050;28;97393;-73
2021/04/08 03:09:04;;;;;;;8.15;5.85;;;;;;;1.93;40.17;101334.84;4975193;28;98452;-73
2021/04/08 03:11:36;;;;;;;6.05;5.45;;;;;;;1.93;40.19;101332.22;4944386;28;100442;-73
2021/04/08 03:14:06;;;;;;;10.68;5.70;;;;;;;1.92;40.24;101335.69;4960468;28;97032;-73
2021/04/08 03:16:37;;;;;;;8.80;6.00;;;;;;;1.99;40.62;101342.22;4962809;28;96818;-73
2021/04/08 03:19:06;;;;;;;7.43;5.85;;;;;;;2.02;40.60;101340.69;4976048;28;99670;-72
2021/04/08 03:21:34;;;;;;;5.82;5.20;;;;;;;2.02;40.28;101332.81;4960245;28;99501;-73
2021/04/08 03:24:02;;;;;;;10.25;5.53;;;;;;;1.99;40.41;101340.50;4979501;28;97601;-73
2021/04/08 03:26:30;;;;;;;7.65;6.22;;;;;;;1.96;39.84;101335.03;4964049;28;97747;-73
2021/04/08 03:28:58;;;;;;;10.27;6.07;;;;;;;1.99;40.17;101335.25;4946971;28;98923;-73
2021/04/08 03:31:25;;;;;;;8.82;5.80;;;;;;;1.99;39.78;101345.75;4964242;28;100698;-72
2021/04/08 03:33:52;;;;;;;8.00;5.47;;;;;;;1.93;40.54;101337.47;4965982;28;98533;-73
2021/04/08 03:36:20;;;;;;;7.53;5.50;;;;;;;1.91;40.73;101354.84;4966638;28;97120;-72
2021/04/08 03:38:47;;;;;;;13.00;6.45;;;;;;;1.90;39.95;101342.53;4960941;28;97606;-72
2021/04/08 03:41:15;;;;;;;11.90;5.70;;;;;;;1.85;40.66;101364.94;4965435;28;97916;-74
2021/04/08 03:43:42;;;;;;;12.05;6.07;;;;;;;1.84;40.10;101389.38;4981176;28;97146;-74
2021/04/08 03:46:11;;;;;;;9.13;6.10;;;;;;;1.83;40.21;101379.69;4963199;28;97673;-72
2021/04/08 03:48:38;;;;;;;7.43;5.95;;;;;;;1.79;40.11;101375.06;4947767;28;100313;-74
2021/04/08 03:51:06;;;;;;;6.60;5.93;;;;;;;1.79;39.80;101374.13;4965043;28;97657;-73
2021/04/08 03:53:33;;;;;;;9.40;5.85;;;;;;;1.81;39.83;101380.38;4979348;28;97150;-72
2021/04/08 03:56:01;;;;;;;13.88;5.93;;;;;;;1.80;40.19;101382.09;4946775;28;97536;-72
2021/04/08 03:58:28;;;;;;;6.22;5.47;;;;;;;1.84;40.07;101398.94;4965071;28;97682;-74
2021/04/08 04:00:58;;;;;;;6.72;6.10;;;;;;;1.88;39.66;101394.00;4965654;28;99048;-74
2021/04/08 04:03:26;;;;;;;7.07;6.03;;;;;;;1.93;39.75;101389.06;4965140;28;97292;-74
2021/04/08 04:05:53;;;;;;;12.07;5.40;;;;;;;1.95;39.72;101404.09;4965477;28;97104;-74
2021/04/08 04:08:20;;;;;;;8.43;5.20;;;;;;;2.00;39.96;101402.69;4964029;28;98090;-74
2021/04/08 04:10:47;;;;;;;9.23;5.40;;;;;;;1.98;39.90;101398.16;4979359;28;97763;-73
2021/04/08 04:13:15;;;;;;;9.85;5.85;;;;;;;2.00;39.67;101396.50;4967195;28;98388;-73
2021/04/08 04:15:46;;;;;;;7.30;6.40;;;;;;;2.04;40.15;101403.78;4948723;28;97833;-72
2021/04/08 04:18:16;;;;;;;7.90;5.90;;;;;;;2.07;39.58;101410.13;4964063;28;100789;-73
2021/04/08 04:20:44;;;;;;;8.80;5.85;;;;;;;2.02;39.33;101414.19;4978118;28;98225;-73
2021/04/08 04:23:12;;;;;;;10.90;6.20;;;;;;;2.06;39.79;101397.84;4965680;28;97027;-72
2021/04/08 04:25:39;;;;;;;11.32;6.15;;;;;;;2.06;39.74;101408.34;4966321;28;97199;-73
2021/04/08 04:28:06;;;;;;;9.60;5.70;;;;;;;2.05;39.55;101411.75;4947041;28;99388;-72
2021/04/08 04:30:34;;;;;;;8.82;5.75;;;;;;;2.03;39.58;101413.41;4947800;28;99380;-72
2021/04/08 04:33:02;;;;;;;6.28;5.60;;;;;;;1.99;39.65;101415.72;4947667;28;97895;-72
2021/04/08 04:35:29;;;;;;;7.90;5.13;;;;;;;1.98;39.39;101419.16;4945423;28;96979;-72
2021/04/08 04:37:57;;;;;;;7.85;5.00;;;;;;;1.96;39.73;101426.00;4964438;28;97670;-71
2021/04/08 04:40:24;;;;;;;7.63;5.68;;;;;;;1.92;39.72;101427.53;4943294;28;99891;-74
2021/04/08 04:42:50;;;;;;;5.32;4.72;;;;;;;1.89;39.33;101424.69;4961716;28;97807;-73
2021/04/08 04:45:17;;;;;;;7.32;5.78;;;;;;;1.87;39.33;101431.53;4963094;28;96700;-73
2021/04/08 04:47:44;;;;;;;9.07;5.70;;;;;;;1.85;39.95;101433.16;4961671;28;97777;-73
2021/04/08 04:50:13;;;;;;;6.18;5.57;;;;;;;1.84;39.45;101433.97;4945827;28;101196;-74
2021/04/08 04:52:40;;;;;;;12.43;5.30;;;;;;;1.84;40.01;101431.34;4947373;28;97046;-74
2021/04/08 04:55:09;;;;;;;16.83;6.27;;;;;;;1.84;39.50;101441.84;4960457;28;98283;-73
2021/04/08 04:57:36;;;;;;;11.70;5.35;;;;;;;1.85;39.61;101443.66;4963589;28;97575;-74
2021/04/08 05:00:05;;;;;;;17.13;6.43;;;;;;;1.96;39.69;101453.13;4928731;28;100603;-74
2021/04/08 05:02:31;;;;;;;12.50;6.97;;;;;;;1.96;40.68;101463.63;4946134;28;97633;-75
2021/04/08 05:04:58;;;;;;;8.80;4.93;;;;;;;1.98;40.74;101469.03;4964212;28;98059;-74
2021/04/08 05:07:25;;;;;;;8.25;5.10;;;;;;;1.99;40.68;101469.13;4961760;28;99210;-74
2021/04/08 05:09:52;;;;;;;7.15;5.65;;;;;;;1.93;40.43;101471.31;4946530;28;98340;-75
2021/04/08 05:12:20;;;;;;;10.07;5.63;;;;;;;1.95;39.94;101476.66;4963874;28;97714;-74
2021/04/08 05:14:46;;;;;;;9.27;5.00;;;;;;;1.93;40.16;101473.94;4946646;28;99183;-74
2021/04/08 05:17:13;;;;;;;7.15;4.47;;;;;;;1.99;39.96;101474.38;4963051;28;98841;-74
2021/04/08 05:19:40;;;;;;;12.63;7.70;;;;;;;2.06;40.58;101491.41;4961883;28;98908;-74
2021/04/08 05:22:07;;;;;;;9.25;5.60;;;;;;;2.08;40.54;101482.84;4965171;28;98063;-74
2021/04/08 05:24:34;;;;;;;6.47;5.45;;;;;;;2.11;40.24;101480.44;4979193;28;96921;-74
2021/04/08 05:27:01;;;;;;;7.80;5.10;;;;;;;2.16;39.56;101493.88;4963931;28;98326;-73
2021/04/08 05:29:29;;;;;;;5.68;4.40;;;;;;;2.20;39.97;101493.25;4963566;28;96934;-73
2021/04/08 05:31:55;;;;;;;6.97;5.40;;;;;;;2.27;39.88;101492.88;4946717;28;97120;-73
2021/04/08 05:34:22;;;;;;;7.90;5.10;;;;;;;2.30;39.72;101497.41;4964144;28;96952;-73
2021/04/08 05:36:49;;;;;;;5.65;5.05;;;;;;;2.30;39.84;101492.16;4945973;28;99268;-74
2021/04/08 05:39:16;;;;;;;8.45;5.35;;;;;;;2.29;39.98;101495.59;4963789;28;98108;-74
2021/04/08 05:41:43;;;;;;;5.90;5.35;;;;;;;2.30;39.27;101513.16;4964187;28;97572;-74
2021/04/08 05:44:09;;;;;;;15.55;5.38;;;;;;;2.34;39.12;101515.19;4942210;28;98413;-74
2021/04/08 05:46:37;;;;;;;14.77;6.95;;;;;;;2.31;39.64;101517.63;4961517;28;97672;-73
2021/04/08 05:49:04;;;;;;;8.80;5.60;;;;;;;2.33;39.89;101524.78;4963652;28;97750;-73
2021/04/08 05:51:30;;;;;;;6.72;5.38;;;;;;;2.34;39.77;101517.81;4928761;28;97978;-74
2021/04/08 05:53:57;;;;;;;5.70;4.80;;;;;;;2.35;39.33;101525.78;4957772;28;97090;-74
2021/04/08 05:56:24;;;;;;;12.45;5.65;;;;;;;2.39;39.35;101526.88;4962027;28;98923;-73
2021/04/08 05:58:51;;;;;;;6.25;5.65;;;;;;;2.46;39.55;101532.66;4959937;28;98306;-73
2021/04/08 06:01:17;;;;;;;11.25;5.07;;;;;;;2.47;39.23;101544.06;4944656;28;97756;-73
2021/04/08 06:03:45;;;;;;;5.63;4.82;;;;;;;2.43;39.38;101544.69;4963305;28;98358;-73
2021/04/08 06:06:12;;;;;;;12.27;6.40;;;;;;;2.43;39.51;101539.41;4958032;28;98607;-73
2021/04/08 06:08:39;;;;;;;9.85;5.50;;;;;;;2.39;39.14;101546.19;4960039;28;100594;-72
2021/04/08 06:11:06;;;;;;;9.30;5.45;;;;;;;2.39;39.59;101550.53;4944923;28;97285;-73
2021/04/08 06:13:35;;;;;;;9.20;5.15;;;;;;;2.47;38.89;101554.59;4959459;28;97938;-73
2021/04/08 06:16:03;;;;;;;8.25;6.05;;;;;;;2.49;39.42;101568.72;4942543;28;99025;-73
2021/04/08 06:18:29;;;;;;;6.78;5.10;;;;;;;2.45;39.46;101562.38;4977692;28;98569;-73
2021/04/08 06:20:57;;;;;;;10.27;6.32;;;;;;;2.43;39.24;101558.72;4962750;28;97791;-73
2021/04/08 06:23:24;;;;;;;7.72;5.40;;;;;;;2.45;39.67;101565.00;4961712;28;99331;-73
2021/04/08 06:25:51;;;;;;;11.55;5.25;;;;;;;2.48;39.26;101572.16;4979528;28;100577;-73
2021/04/08 06:28:18;;;;;;;14.77;6.60;;;;;;;2.47;40.04;101566.00;4962142;28;97828;-73
2021/04/08 06:30:46;;;;;;;5.82;5.30;;;;;;;2.45;39.86;101571.94;4960490;28;97392;-73
2021/04/08 06:33:13;;;;;;;7.40;5.15;;;;;;;2.52;40.13;101571.53;4945274;28;96875;-73
2021/04/08 06:35:41;;;;;;;6.22;5.60;;;;;;;2.55;39.94;101596.28;4946242;28;99294;-73
2021/04/08 06:38:08;;;;;;;8.48;5.28;;;;;;;2.55;39.32;101577.00;4976889;28;100323;-74
2021/04/08 06:40:35;;;;;;;7.47;5.43;;;;;;;2.55;39.44;101583.16;4943113;28;97025;-73
2021/04/08 06:43:03;;;;;;;6.28;5.70;;;;;;;2.58;39.58;101577.22;4962040;28;97781;-73
2021/04/08 06:45:32;;;;;;;11.95;6.40;;;;;;;2.56;38.96;101590.25;4972642;28;100687;-73
2021/04/08 06:48:02;;;;;;;10.50;5.85;;;;;;;2.53;39.13;101600.53;4961778;28;97543;-73
2021/04/08 06:50:34;;;;;;;6.75;5.40;;;;;;;2.52;39.48;101596.09;4973693;28;97092;-73
2021/04/08 06:53:02;;;;;;;12.35;5.57;;;;;;;2.55;38.81;101617.31;4960786;28;97027;-74
2021/04/08 06:55:29;;;;;;;7.93;5.20;;;;;;;2.56;39.24;101600.75;4952065;28;99093;-73
2021/04/08 06:57:57;;;;;;;8.40;5.38;;;;;;;2.60;39.71;101609.75;4938038;28;99024;-73
2021/04/08 07:00:24;;;;;;;5.43;4.90;;;;;;;2.58;39.38;101611.38;4940689;28;97057;-74
2021/04/08 07:02:51;;;;;;;12.25;6.90;;;;;;;2.60;39.45;101615.88;4975059;28;97037;-74
2021/04/08 07:05:18;;;;;;;8.00;5.72;;;;;;;2.65;38.97;101619.75;4942374;28;99920;-74
2021/04/08 07:07:46;;;;;;;5.97;5.07;;;;;;;2.67;38.58;101617.22;4973922;28;98012;-74
2021/04/08 07:10:13;;;;;;;13.27;6.00;;;;;;;2.67;39.22;101627.75;4940397;28;97908;-75
2021/04/08 07:12:40;;;;;;;10.35;6.40;;;;;;;2.70;39.17;101633.19;4935928;28;97781;-74
2021/04/08 07:15:08;;;;;;;9.68;5.63;;;;;;;2.71;39.22;101638.53;4960339;28;101029;-74
2021/04/08 07:17:35;;;;;;;9.57;5.85;;;;;;;2.77;39.28;101640.66;4938828;28;98887;-74
2021/04/08 07:20:04;;;;;;;11.93;5.35;;;;;;;2.79;38.82;101637.34;4974236;28;98040;-74
2021/04/08 07:22:31;;;;;;;10.13;5.20;;;;;;;2.82;39.03;101658.53;4942173;28;97026;-74
2021/04/08 07:24:58;;;;;;;6.18;5.25;;;;;;;2.83;39.01;101647.25;4936196;28;99307;-74
2021/04/08 07:27:25;;;;;;;9.48;5.22;;;;;;;2.88;39.18;101651.06;4937803;28;99784;-75
2021/04/08 07:29:55;;;;;;;7.35;4.80;;;;;;;2.92;38.88;101642.59;4941832;28;98854;-74
2021/04/08 07:32:26;;;;;;;10.43;5.93;;;;;;;2.99;38.35;101654.41;4940965;28;97444;-75
2021/04/08 07:34:56;;;;;;;7.40;5.35;;;;;;;3.03;38.28;101657.34;4948520;28;98600;-74
2021/04/08 07:37:30;;;;;;;6.43;5.65;;;;;;;3.02;38.73;101652.88;4962371;28;97885;-74
2021/04/08 07:39:58;;;;;;;7.60;5.18;;;;;;;3.12;38.77;101651.75;4977924;28;97229;-75
2021/04/08 07:42:28;;;;;;;9.77;5.00;;;;;;;3.22;38.07;101648.94;4960719;28;97284;-75
2021/04/08 07:44:57;;;;;;;6.45;5.22;;;;;;;3.37;38.39;101665.66;4959359;28;99543;-74
2021/04/08 07:47:27;;;;;;;10.00;5.28;;;;;;;3.43;37.92;101665.16;4950914;28;98048;-75
2021/04/08 07:49:56;;;;;;;4.70;4.10;;;;;;;3.55;38.17;101656.31;4944158;28;97746;-73
2021/04/08 07:52:26;;;;;;;10.57;4.80;;;;;;;3.67;38.06;101669.38;4977248;28;97216;-73
2021/04/08 07:55:03;;;;;;;5.60;4.68;;;;;;;3.75;37.86;101681.31;4945403;28;100797;-73
2021/04/08 07:57:30;;;;;;;6.78;5.05;;;;;;;3.76;37.51;101677.84;4945298;28;100955;-74
2021/04/08 08:00:03;;;;;;;8.43;5.00;;;;;;;3.75;37.63;101684.81;4944980;28;98155;-74
2021/04/08 08:02:39;;;;;;;12.27;5.45;;;;;;;3.76;37.13;101689.28;4977854;28;97631;-74
2021/04/08 08:05:22;;;;;;;5.57;4.85;;;;;;;3.82;37.27;101680.88;4944081;28;101400;-74
2021/04/08 08:07:50;;;;;;;5.93;5.43;;;;;;;3.81;37.58;101690.47;4944873;28;99388;-74
2021/04/08 08:10:19;;;;;;;6.45;4.82;;;;;;;3.77;37.50;101687.59;4930893;28;97065;-74
2021/04/08 08:12:46;;;;;;;6.40;4.88;;;;;;;3.75;37.51;101681.31;4980288;28;97330;-74
2021/04/08 08:15:20;;;;;;;5.22;4.80;;;;;;;3.81;37.41;101690.47;4963956;28;97879;-74
2021/04/08 08:17:47;;;;;;;5.50;4.40;;;;;;;3.83;37.57;101690.56;4946532;28;98715;-74
2021/04/08 08:20:15;;;;;;;5.80;4.55;;;;;;;3.96;37.03;101693.16;4965534;28;97593;-74
2021/04/08 08:22:44;;;;;;;6.65;4.63;;;;;;;4.02;37.33;101704.09;4964936;28;97220;-74
2021/04/08 08:25:13;;;;;;;6.15;5.40;;;;;;;4.10;37.29;101692.28;4966601;28;97729;-74
2021/04/08 08:27:42;;;;;;;6.90;4.90;;;;;;;4.10;37.03;101708.09;4931889;28;99661;-74
2021/04/08 08:30:11;;;;;;;7.15;4.60;;;;;;;4.08;37.19;101694.81;4946848;28;97272;-74
2021/04/08 08:32:39;;;;;;;7.40;4.65;;;;;;;4.14;37.30;101699.56;4964054;28;97323;-74
2021/04/08 08:35:08;;;;;;;5.20;4.80;;;;;;;4.15;36.73;101718.09;4931987;28;100486;-74
2021/04/08 08:37:35;;;;;;;7.88;4.57;;;;;;;4.23;36.67;101698.41;4945811;28;99091;-75
2021/04/08 08:40:20;;;;;;;6.25;5.28;;;;;;;4.32;36.67;101697.16;4948444;28;97234;-75
2021/04/08 08:42:47;;;;;;;6.88;5.00;;;;;;;4.41;36.53;101705.63;4950318;28;98551;-74
2021/04/08 08:45:15;;;;;;;9.10;4.75;;;;;;;4.46;36.52;101705.09;4965335;28;98581;-75
2021/04/08 08:47:43;;;;;;;5.60;4.45;;;;;;;4.52;36.77;101699.28;4966640;28;98756;-74
2021/04/08 08:50:13;;;;;;;15.60;6.28;;;;;;;4.50;36.50;101712.31;4949765;28;97379;-75
2021/04/08 08:52:41;;;;;;;12.98;5.60;;;;;;;4.53;35.99;101709.91;4967015;28;98597;-75
2021/04/08 08:55:11;;;;;;;6.45;4.35;;;;;;;4.62;35.95;101696.34;4949872;28;100418;-75
2021/04/08 08:57:38;;;;;;;7.40;4.65;;;;;;;4.61;35.92;101708.59;4966025;28;99573;-75
2021/04/08 09:00:07;;;;;;;7.55;4.72;;;;;;;4.58;35.78;101700.53;4949626;28;97744;-74
2021/04/08 09:02:35;;;;;;;9.55;4.55;;;;;;;4.63;35.92;101709.63;4967833;28;97074;-75
2021/04/08 09:05:04;;;;;;;9.85;4.32;;;;;;;4.65;35.98;101715.88;4980830;28;100796;-75
2021/04/08 09:07:31;;;;;;;8.55;4.40;;;;;;;4.61;36.00;101726.19;4948423;28;99378;-74
2021/04/08 09:10:01;;;;;;;4.80;3.78;;;;;;;4.60;35.90;101725.25;4962091;28;97591;-75
2021/04/08 09:12:28;;;;;;;7.25;4.35;;;;;;;4.66;35.82;101724.72;4981628;28;97231;-74
2021/04/08 09:14:56;;;;;;;8.90;5.20;;;;;;;4.72;36.06;101709.25;4965529;28;97859;-74
2021/04/08 09:17:40;;;;;;;6.28;4.53;;;;;;;4.81;34.84;101726.53;4938272;28;99301;-74
2021/04/08 09:20:10;;;;;;;4.68;4.25;;;;;;;4.90;35.62;101724.44;4980314;28;96930;-75
2021/04/08 09:22:49;;;;;;;4.78;4.07;;;;;;;4.97;35.42;101718.69;4963992;28;96988;-74
2021/04/08 09:25:16;;;;;;;9.07;4.43;;;;;;;4.99;35.37;101734.63;4965579;28;98767;-75
2021/04/08 09:27:50;;;;;;;7.13;4.35;;;;;;;4.92;34.57;101735.06;4947309;28;97912;-74
2021/04/08 09:30:32;;;;;;;4.75;3.72;;;;;;;4.88;33.67;101733.09;4965233;28;98444;-75
2021/04/08 09:32:59;;;;;;;4.78;4.20;;;;;;;4.93;35.31;101727.25;4964210;28;96950;-75
2021/04/08 09:35:29;;;;;;;6.97;4.63;;;;;;;4.97;35.00;101725.72;4965433;28;97912;-75
2021/04/08 09:38:20;;;;;;;4.30;3.65;;;;;;;5.05;33.11;101720.09;4947083;28;101082;-75
2021/04/08 09:40:49;;;;;;;6.25;3.90;;;;;;;5.10;34.96;101721.25;4962694;28;97188;-74
2021/04/08 09:43:18;;;;;;;7.35;4.20;;;;;;;5.14;34.94;101717.06;4947176;28;97628;-75
2021/04/08 09:45:50;;;;;;;5.55;4.22;;;;;;;5.19;34.84;101731.47;4947031;28;99250;-74
2021/04/08 09:48:21;;;;;;;6.03;4.57;;;;;;;5.25;34.83;101731.78;4941366;28;99994;-75
2021/04/08 09:50:50;;;;;;;5.25;4.72;;;;;;;5.19;35.00;101731.47;4979847;28;96948;-75
2021/04/08 09:53:19;;;;;;;7.15;4.82;;;;;;;5.22;35.13;101736.91;4947897;28;98099;-74
2021/04/08 09:55:51;;;;;;;7.32;4.40;;;;;;;5.15;34.83;101734.72;4958578;28;99710;-74
2021/04/08 09:58:24;;;;;;;6.40;4.35;;;;;;;5.13;34.49;101737.28;4962964;28;97859;-74
2021/04/08 10:00:52;;;;;;;4.25;3.95;;;;;;;5.17;34.81;101733.09;4963370;28;97544;-74
2021/04/08 10:03:28;;;;;;;4.65;3.97;;;;;;;5.25;34.17;101733.53;4964582;28;97747;-74
2021/04/08 10:05:56;;;;;;;3.72;3.53;;;;;;;5.29;34.66;101739.06;4961971;28;100750;-75
2021/04/08 10:08:25;;;;;;;6.78;4.20;;;;;;;5.33;34.91;101729.59;4962973;28;99615;-74
2021/04/08 10:10:52;;;;;;;7.40;4.22;;;;;;;5.42;34.71;101730.09;4963801;28;97600;-74
2021/04/08 10:13:22;;;;;;;5.50;3.97;;;;;;;5.45;34.33;101739.09;4978842;28;97094;-75
2021/04/08 10:15:50;;;;;;;4.43;4.03;;;;;;;5.55;34.75;101728.25;4963846;28;98918;-74
2021/04/08 10:18:18;;;;;;;7.70;4.47;;;;;;;5.60;34.54;101726.78;4964268;28;97599;-75
2021/04/08 10:20:46;;;;;;;7.25;4.05;;;;;;;5.69;34.51;101723.72;4947250;28;97412;-74
2021/04/08 10:23:15;;;;;;;4.50;4.10;;;;;;;5.70;34.30;101738.78;4963193;28;98175;-74
2021/04/08 10:25:42;;;;;;;8.40;4.85;;;;;;;5.67;34.12;101726.28;4944682;28;99433;-75
2021/04/08 10:28:08;;;;;;;5.22;4.10;;;;;;;5.65;34.37;101732.34;4930127;28;100197;-74
2021/04/08 10:30:38;;;;;;;5.07;4.47;;;;;;;5.62;34.44;101740.06;4961842;28;96872;-75
2021/04/08 10:33:16;;;;;;;3.88;3.40;;;;;;;5.51;32.67;101742.09;4945157;28;96930;-75
2021/04/08 10:35:43;;;;;;;9.90;6.10;;;;;;;5.57;34.03;101747.75;4944761;28;98694;-74
2021/04/08 10:38:11;;;;;;;4.43;4.13;;;;;;;5.56;33.94;101745.00;4963531;28;97792;-74
2021/04/08 10:40:39;;;;;;;4.97;4.60;;;;;;;5.57;34.10;101742.47;4962684;28;97503;-74
2021/04/08 10:43:11;;;;;;;6.85;4.60;;;;;;;5.64;34.13;101739.34;4962554;28;97997;-74
2021/04/08 10:45:39;;;;;;;8.82;4.70;;;;;;;5.67;33.95;101739.50;4977779;28;98653;-75
2021/04/08 10:48:07;;;;;;;4.18;3.88;;;;;;;5.77;33.59;101747.13;4962965;28;97954;-73
2021/04/08 10:50:34;;;;;;;5.70;4.20;;;;;;;5.80;33.54;101752.56;4944776;28;96809;-74
2021/04/08 10:53:02;;;;;;;6.35;3.88;;;;;;;5.92;33.33;101747.06;4963359;28;97177;-74
2021/04/08 10:55:29;;;;;;;4.10;3.30;;;;;;;5.94;33.51;101740.13;4963350;28;97999;-73
2021/04/08 10:57:56;;;;;;;5.15;4.15;;;;;;;5.95;33.42;101749.88;4963070;28;98210;-74
2021/04/08 11:00:24;;;;;;;4.55;4.13;;;;;;;5.93;33.31;101759.44;4945845;28;97000;-74
2021/04/08 11:02:51;;;;;;;3.83;3.53;;;;;;;5.87;33.44;101754.72;4964143;28;97382;-74
2021/04/08 11:05:20;;;;;;;4.80;4.32;;;;;;;5.84;33.50;101765.13;4927266;28;99102;-74
2021/04/08 11:07:48;;;;;;;4.10;3.90;;;;;;;5.89;33.42;101761.00;4944565;28;98983;-74
2021/04/08 11:10:18;;;;;;;5.22;3.72;;;;;;;5.86;33.40;101763.47;4977367;28;97483;-74
2021/04/08 11:12:47;;;;;;;5.75;3.63;;;;;;;5.92;33.33;101757.63;4964263;28;96953;-74
2021/04/08 11:15:17;;;;;;;7.03;3.80;;;;;;;5.95;33.44;101758.72;4928788;28;99326;-74
2021/04/08 11:17:46;;;;;;;4.00;3.50;;;;;;;6.01;33.25;101769.59;4945664;28;99408;-73
2021/04/08 11:20:14;;;;;;;4.32;3.70;;;;;;;6.04;33.02;101759.22;4962813;28;97575;-74
2021/04/08 11:22:43;;;;;;;4.78;3.78;;;;;;;6.22;32.80;101764.56;4946162;28;98013;-74
2021/04/08 11:25:11;;;;;;;4.00;3.80;;;;;;;6.31;32.97;101756.25;4976933;28;99027;-74
2021/04/08 11:27:43;;;;;;;3.90;3.45;;;;;;;6.46;32.54;101751.81;4943257;28;99753;-75
2021/04/08 11:30:13;;;;;;;6.53;4.13;;;;;;;6.52;32.67;101746.84;4961501;28;96900;-75
2021/04/08 11:32:45;;;;;;;4.15;3.85;;;;;;;6.59;32.22;101756.91;4962414;28;96825;-75
2021/04/08 11:35:23;;;;;;;6.15;3.90;;;;;;;6.39;32.23;101771.72;4945277;28;101581;-75
2021/04/08 11:37:50;;;;;;;5.97;3.63;;;;;;;6.29;32.77;101772.03;4963282;28;99268;-75